Time;durP1;ratioP1;P1;durP2;ratioP2;P2;SDS_P1;SDS_P2;PMS_P1;PMS_P2;Temp;Humidity;BMP_temperature;BMP_pressure;BME280_temperature;BME280_humidity;BME280_pressure;Samples;Min_cycle;Max_cycle;Signal;HPM_P1;HPM_P2
2023/05/18 00:00:00;;;;;;;;;7.25;6.25;;;;;21.62;36.60;102506.56;6303657;22;45320;-76
2023/05/18 00:02:25;;;;;;;;;5.75;4.75;;;;;21.68;36.97;102516.59;6304251;22;45281;-75
2023/05/18 00:04:51;;;;;;;;;7.00;4.00;;;;;21.67;36.82;102525.53;6303710;22;45424;-75
2023/05/18 00:07:17;;;;;;;;;6.75;6.25;;;;;21.66;36.65;102521.19;6304090;22;46150;-75
2023/05/18 00:09:42;;;;;;;;;7.75;5.50;;;;;21.63;36.83;102524.94;6302872;22;45496;-75
2023/05/18 00:12:08;;;;;;;;;7.00;4.25;;;;;21.35;37.00;102474.44;6304126;22;45193;-76
2023/05/18 00:14:34;;;;;;;;;6.75;6.75;;;;;21.60;36.68;102511.97;6304245;22;45319;-75
2023/05/18 00:17:00;;;;;;;;;7.75;5.00;;;;;21.62;36.70;102514.50;6303251;22;47073;-75
2023/05/18 00:19:27;;;;;;;;;1.75;1.75;;;;;21.62;36.69;102528.56;6303438;22;45186;-75
2023/05/18 00:21:54;;;;;;;;;5.50;5.50;;;;;21.55;36.62;102516.00;6304227;22;45186;-75
2023/05/18 00:24:20;;;;;;;;;4.00;4.00;;;;;21.59;36.61;102526.22;6303486;22;45393;-75
2023/05/18 00:26:47;;;;;;;;;5.50;5.00;;;;;21.58;36.99;102529.81;6303853;22;45777;-75
2023/05/18 00:29:13;;;;;;;;;6.00;5.00;;;;;21.51;36.88;102510.16;6303416;22;45600;-75
2023/05/18 00:31:39;;;;;;;;;7.00;6.25;;;;;21.46;36.96;102507.91;6303310;22;45221;-73
2023/05/18 00:34:05;;;;;;;;;6.75;6.00;;;;;21.45;36.91;102503.59;6303105;22;45229;-72
2023/05/18 00:36:30;;;;;;;;;7.00;7.00;;;;;21.58;36.76;102526.31;6304439;22;46849;-75
2023/05/18 00:38:57;;;;;;;;;5.00;5.00;;;;;21.52;36.99;102515.31;6305080;22;45213;-75
2023/05/18 00:41:23;;;;;;;;;8.00;6.50;;;;;21.58;36.93;102519.22;6303582;22;45318;-76
2023/05/18 00:43:49;;;;;;;;;5.25;4.25;;;;;21.29;36.43;102478.47;6304977;22;45331;-73
2023/05/18 00:46:14;;;;;;;;;5.50;4.25;;;;;21.57;36.80;102514.88;6305276;22;45360;-76
2023/05/18 00:48:40;;;;;;;;;6.00;6.00;;;;;21.57;36.51;102520.19;6304941;22;45265;-76
2023/05/18 00:51:05;;;;;;;;;7.00;6.00;;;;;21.56;36.66;102515.88;6305061;22;45392;-75
2023/05/18 00:53:35;;;;;;;;;8.50;6.00;;;;;21.58;36.76;102518.38;6305475;22;45357;-76
2023/05/18 00:56:00;;;;;;;;;6.50;5.00;;;;;21.56;36.66;102529.13;6304847;22;46112;-75
2023/05/18 00:58:25;;;;;;;;;12.50;6.75;;;;;21.56;36.90;102522.97;6304578;22;45228;-75
2023/05/18 01:00:52;;;;;;;;;7.00;7.00;;;;;21.52;36.72;102520.59;6305022;22;45141;-76
2023/05/18 01:03:19;;;;;;;;;6.00;6.00;;;;;21.54;36.52;102520.47;6304590;22;45283;-75
2023/05/18 01:05:49;;;;;;;;;9.00;7.25;;;;;21.49;36.85;102520.06;6304600;22;47249;-75
2023/05/18 01:08:15;;;;;;;;;9.00;6.00;;;;;21.50;36.61;102516.41;6304696;22;45240;-75
2023/05/18 01:10:42;;;;;;;;;7.00;6.25;;;;;21.41;36.56;102512.78;6305466;22;45285;-75
2023/05/18 01:13:14;;;;;;;;;8.25;7.00;;;;;21.48;36.92;102519.19;6305025;22;45462;-75
2023/05/18 01:15:41;;;;;;;;;6.25;6.25;;;;;21.47;36.91;102516.69;6304628;22;46328;-75
2023/05/18 01:18:13;;;;;;;;;8.00;7.00;;;;;21.33;36.77;102494.06;6306106;22;45265;-75
2023/05/18 01:20:59;;;;;;;;;7.50;7.50;;;;;21.47;36.62;102516.69;6305001;22;45272;-75
2023/05/18 01:24:02;;;;;;;;;6.25;5.50;;;;;21.46;36.81;102517.66;6304852;22;45266;-75
2023/05/18 01:26:30;;;;;;;;;4.75;4.00;;;;;21.39;36.54;102504.13;6304430;22;47161;-76
2023/05/18 01:28:58;;;;;;;;;6.00;5.25;;;;;21.45;36.42;102518.63;6303030;22;45241;-75
2023/05/18 01:31:25;;;;;;;;;4.75;4.75;;;;;21.44;37.18;102516.97;6304469;22;45277;-75
2023/05/18 01:33:50;;;;;;;;;7.00;5.75;;;;;21.42;36.58;102516.28;6304976;22;45404;-75
2023/05/18 01:36:15;;;;;;;;;7.75;4.75;;;;;21.40;36.57;102521.69;6305059;22;45352;-75
2023/05/18 01:38:41;;;;;;;;;9.25;5.50;;;;;21.31;36.72;102511.91;6305039;22;45292;-75
2023/05/18 01:41:20;;;;;;;;;7.00;6.00;;;;;21.37;36.71;102519.31;6304924;22;45281;-75
2023/05/18 01:44:00;;;;;;;;;7.25;5.50;;;;;21.36;36.93;102520.28;6304343;22;45586;-75
2023/05/18 01:46:37;;;;;;;;;7.00;4.75;;;;;21.36;36.85;102520.28;6303823;22;46220;-75
2023/05/18 01:49:15;;;;;;;;;6.25;6.25;;;;;21.36;36.81;102518.50;6302665;22;45950;-76
2023/05/18 01:51:45;;;;;;;;;7.00;7.00;;;;;21.35;36.90;102526.53;6304556;22;45257;-76
2023/05/18 01:54:14;;;;;;;;;5.25;4.50;;;;;21.33;36.79;102520.56;6304722;22;45348;-75
2023/05/18 01:56:41;;;;;;;;;7.50;6.00;;;;;21.26;36.50;102517.63;6303735;22;45374;-75
2023/05/18 01:59:07;;;;;;;;;5.50;5.50;;;;;21.18;36.56;102497.94;6304849;22;45265;-75
2023/05/18 02:01:32;;;;;;;;;5.25;5.25;;;;;21.26;36.78;102518.44;6302598;22;45230;-75
2023/05/18 02:03:58;;;;;;;;;6.50;5.75;;;;;21.26;36.66;102505.19;6304877;22;47135;-75
2023/05/18 02:06:23;;;;;;;;;8.50;6.00;;;;;21.21;36.62;102504.75;6304885;22;45338;-75
2023/05/18 02:08:50;;;;;;;;;7.25;4.00;;;;;21.22;36.38;102505.59;6304884;22;45258;-76
2023/05/18 02:11:15;;;;;;;;;6.25;5.00;;;;;21.21;36.53;102498.66;6304645;22;45190;-76
2023/05/18 02:13:40;;;;;;;;;7.50;6.00;;;;;21.11;36.20;102496.78;6304910;22;45174;-76
2023/05/18 02:16:06;;;;;;;;;10.25;7.00;;;;;21.16;36.45;102502.53;6304590;22;46263;-76
2023/05/18 02:18:35;;;;;;;;;5.75;5.00;;;;;21.17;36.67;102504.22;6304240;22;45186;-75
2023/05/18 02:21:00;;;;;;;;;5.75;5.25;;;;;21.04;36.34;102483.25;6304611;22;45333;-76
2023/05/18 02:23:26;;;;;;;;;6.25;6.00;;;;;21.16;36.57;102510.47;6305013;22;45714;-75
2023/05/18 02:25:54;;;;;;;;;6.50;6.50;;;;;20.98;36.25;102481.09;6304311;22;47086;-75
2023/05/18 02:28:20;;;;;;;;;8.50;6.25;;;;;21.09;36.19;102495.25;6304430;22;45401;-75
2023/05/18 02:30:46;;;;;;;;;8.00;6.00;;;;;21.11;36.31;102495.94;6304612;22;45302;-75
2023/05/18 02:33:11;;;;;;;;;3.00;2.00;;;;;21.16;36.30;102506.97;6304490;22;45355;-76
2023/05/18 02:35:36;;;;;;;;;5.75;5.00;;;;;21.16;36.22;102506.97;6304620;22;45876;-74
2023/05/18 02:38:02;;;;;;;;;4.75;4.00;;;;;21.01;36.71;102485.28;6304577;22;50446;-74
2023/05/18 02:40:28;;;;;;;;;7.50;5.50;;;;;21.15;36.39;102506.16;6303052;22;45262;-75
2023/05/18 02:42:53;;;;;;;;;6.00;5.00;;;;;21.13;36.19;102516.00;6304311;22;45091;-76
2023/05/18 02:45:19;;;;;;;;;6.00;6.00;;;;;21.00;36.17;102494.22;6303584;22;52236;-75
2023/05/18 02:47:45;;;;;;;;;6.50;5.00;;;;;21.12;36.16;102497.63;6304161;22;45234;-73
2023/05/18 02:50:11;;;;;;;;;6.50;4.75;;;;;21.00;36.33;102484.44;6304701;22;45247;-75
2023/05/18 02:52:36;;;;;;;;;5.25;5.00;;;;;21.06;36.06;102491.91;6304850;22;45415;-75
2023/05/18 02:55:01;;;;;;;;;5.50;5.00;;;;;20.99;36.23;102488.09;6304795;22;46803;-75
2023/05/18 02:57:27;;;;;;;;;5.25;3.75;;;;;21.02;36.16;102494.94;6303698;22;45258;-74
2023/05/18 02:59:52;;;;;;;;;5.25;5.25;;;;;20.99;35.92;102490.72;6302375;22;45354;-75
2023/05/18 03:02:17;;;;;;;;;6.00;4.50;;;;;20.98;36.05;102498.78;6302864;22;45483;-75
2023/05/18 03:04:43;;;;;;;;;5.00;5.00;;;;;21.01;35.85;102501.19;6304272;22;46053;-75
2023/05/18 03:07:09;;;;;;;;;8.00;6.00;;;;;20.99;35.86;102503.13;6304346;22;45312;-76
2023/05/18 03:09:35;;;;;;;;;4.25;4.25;;;;;20.98;35.94;102499.63;6304367;22;45305;-75
2023/05/18 03:12:00;;;;;;;;;9.00;6.00;;;;;20.96;35.82;102498.94;6304328;22;45425;-75
2023/05/18 03:14:26;;;;;;;;;5.25;5.00;;;;;20.84;35.91;102484.97;6303716;22;46248;-75
2023/05/18 03:16:53;;;;;;;;;3.25;3.25;;;;;20.81;35.97;102483.41;6304042;22;45338;-75
2023/05/18 03:19:18;;;;;;;;;5.25;5.00;;;;;20.84;36.10;102484.97;6304480;22;45231;-76
2023/05/18 03:21:44;;;;;;;;;5.25;4.50;;;;;20.94;36.03;102493.78;6304221;22;45469;-75
2023/05/18 03:24:13;;;;;;;;;3.25;3.25;;;;;20.81;35.95;102470.19;6304475;22;45208;-74
2023/05/18 03:26:43;;;;;;;;;5.50;4.00;;;;;20.92;36.00;102498.34;6304051;22;45349;-76
2023/05/18 03:29:09;;;;;;;;;3.75;2.25;;;;;20.92;35.67;102495.69;6303588;22;45155;-75
2023/05/18 03:31:35;;;;;;;;;3.50;3.50;;;;;20.91;35.15;102499.34;6304356;22;45240;-75
2023/05/18 03:34:00;;;;;;;;;8.00;4.25;;;;;20.83;35.66;102486.75;6304185;22;45171;-76
2023/05/18 03:36:26;;;;;;;;;6.00;5.00;;;;;20.84;35.95;102488.41;6304037;22;45280;-75
2023/05/18 03:38:52;;;;;;;;;7.25;4.00;;;;;20.87;35.57;102489.97;6304106;22;45281;-75
2023/05/18 03:41:17;;;;;;;;;5.25;4.75;;;;;20.92;35.53;102494.88;6303921;22;45321;-75
2023/05/18 03:43:43;;;;;;;;;4.00;4.00;;;;;20.92;35.44;102501.00;6303783;22;45986;-75
2023/05/18 03:46:08;;;;;;;;;3.00;3.00;;;;;20.82;35.61;102479.78;6304131;22;45431;-75
2023/05/18 03:48:34;;;;;;;;;5.00;3.00;;;;;20.91;35.47;102488.75;6303937;22;45220;-75
2023/05/18 03:50:59;;;;;;;;;6.25;3.25;;;;;20.83;35.71;102477.97;6303756;22;45300;-75
2023/05/18 03:53:25;;;;;;;;;2.00;2.00;;;;;20.93;35.35;102497.38;6304186;22;46125;-75
2023/05/18 03:55:51;;;;;;;;;4.00;4.00;;;;;20.87;35.15;102484.66;6303776;22;45213;-75
2023/05/18 03:58:18;;;;;;;;;4.25;4.25;;;;;20.85;35.37;102490.13;6303646;22;45841;-75
2023/05/18 04:00:44;;;;;;;;;5.00;4.75;;;;;20.86;35.41;102496.25;6303783;22;45233;-72
2023/05/18 04:03:11;;;;;;;;;6.25;3.25;;;;;20.92;35.54;102498.34;6303576;22;46355;-75
2023/05/18 04:05:37;;;;;;;;;7.25;4.75;;;;;20.94;35.67;102503.53;6302055;22;45512;-76
2023/05/18 04:08:03;;;;;;;;;4.75;3.50;;;;;20.93;35.66;102501.84;6303739;22;45222;-75
2023/05/18 04:10:29;;;;;;;;;3.00;3.00;;;;;20.88;35.31;102496.09;6305180;22;45510;-75
2023/05/18 04:12:55;;;;;;;;;5.00;3.00;;;;;20.82;35.68;102485.06;6304684;22;45348;-75
2023/05/18 04:15:20;;;;;;;;;5.00;3.00;;;;;20.92;35.35;102506.28;6305407;22;45332;-75
2023/05/18 04:17:45;;;;;;;;;3.25;3.25;;;;;20.83;35.67;102492.06;6305671;22;45366;-75
2023/05/18 04:20:13;;;;;;;;;4.00;4.00;;;;;20.88;35.34;102502.25;6305173;22;45295;-75
2023/05/18 04:22:45;;;;;;;;;3.50;3.00;;;;;20.91;34.91;102501.13;6304975;22;46549;-75
2023/05/18 04:25:11;;;;;;;;;3.00;3.00;;;;;20.88;35.19;102496.94;6304956;22;45385;-75
2023/05/18 04:27:38;;;;;;;;;3.00;3.00;;;;;20.89;34.95;102503.09;6305011;22;45284;-76
2023/05/18 04:30:03;;;;;;;;;3.00;3.00;;;;;20.88;35.15;102511.97;6305096;22;45412;-76
2023/05/18 04:32:29;;;;;;;;;1.00;1.00;;;;;20.79;34.99;102495.91;6305003;22;45235;-75
2023/05/18 04:34:57;;;;;;;;;2.25;2.00;;;;;20.83;34.55;102510.56;6305027;22;45235;-75
2023/05/18 04:37:23;;;;;;;;;3.50;3.50;;;;;20.77;34.41;102497.84;6305064;22;45257;-76
2023/05/18 04:39:48;;;;;;;;;2.25;1.75;;;;;20.81;34.58;102507.22;6304994;22;45450;-75
2023/05/18 04:42:16;;;;;;;;;1.25;1.25;;;;;20.77;34.74;102503.16;6305471;22;46129;-76
2023/05/18 04:44:42;;;;;;;;;2.00;2.00;;;;;20.55;34.79;102483.00;6305066;22;45252;-75
2023/05/18 04:47:07;;;;;;;;;2.00;2.00;;;;;20.72;34.44;102508.00;6304501;22;48244;-76
2023/05/18 04:49:32;;;;;;;;;3.00;3.00;;;;;20.62;34.26;102495.56;6305493;22;45324;-75
2023/05/18 04:51:58;;;;;;;;;2.00;2.00;;;;;20.71;34.19;102517.72;6304748;22;47158;-76
2023/05/18 04:54:25;;;;;;;;;1.33;1.00;;;;;20.76;34.16;102529.75;6304220;22;45236;-75
2023/05/18 04:56:51;;;;;;;;;4.00;2.25;;;;;20.72;33.79;102531.81;6304892;22;45394;-76
2023/05/18 04:59:16;;;;;;;;;1.00;1.00;;;;;20.71;34.36;102525.66;6305476;22;45373;-75
2023/05/18 05:01:43;;;;;;;;;2.75;2.00;;;;;20.74;33.60;102528.06;6304483;22;46085;-76
2023/05/18 05:04:08;;;;;;;;;2.75;2.75;;;;;20.73;33.79;102533.50;6304909;22;45390;-75
2023/05/18 05:06:33;;;;;;;;;4.00;3.00;;;;;20.61;33.75;102512.38;6305328;22;45221;-76
2023/05/18 05:08:59;;;;;;;;;3.25;1.50;;;;;20.59;33.48;102518.78;6302812;22;45381;-75
2023/05/18 05:11:24;;;;;;;;;2.00;2.00;;;;;20.72;33.69;102542.38;6304302;22;46270;-75
2023/05/18 05:13:50;;;;;;;;;1.00;1.00;;;;;20.65;33.52;102518.28;6304812;22;45412;-75
2023/05/18 05:16:15;;;;;;;;;2.33;2.33;;;;;20.72;33.06;102539.72;6304903;22;45311;-75
2023/05/18 05:18:40;;;;;;;;;2.50;1.25;;;;;20.72;33.41;102537.94;6304939;22;45451;-75
2023/05/18 05:21:06;;;;;;;;;1.25;1.25;;;;;20.72;33.32;102534.44;6304321;22;47081;-76
2023/05/18 05:23:31;;;;;;;;;2.00;2.00;;;;;20.73;33.20;102546.72;6304321;22;45419;-75
2023/05/18 05:25:56;;;;;;;;;2.00;2.00;;;;;20.58;33.84;102520.56;6305564;22;45410;-74
2023/05/18 05:28:22;;;;;;;;;3.25;2.00;;;;;20.73;33.76;102539.63;6304829;22;45170;-73
2023/05/18 05:30:47;;;;;;;;;2.00;2.00;;;;;20.62;33.59;102535.22;6304789;22;46276;-74
2023/05/18 05:33:12;;;;;;;;;2.00;2.00;;;;;20.68;33.41;102533.88;6304549;22;45263;-74
2023/05/18 05:35:38;;;;;;;;;3.25;1.50;;;;;20.77;33.59;102553.41;6304691;22;45375;-76
2023/05/18 05:38:03;;;;;;;;;2.25;2.25;;;;;20.75;33.45;102539.47;6304324;22;45199;-75
2023/05/18 05:40:28;;;;;;;;;1.33;1.00;;;;;20.77;33.60;102552.56;6304709;22;46022;-72
2023/05/18 05:42:53;;;;;;;;;2.25;2.25;;;;;20.67;33.64;102523.41;6304799;22;47628;-75
2023/05/18 05:45:20;;;;;;;;;2.00;2.00;;;;;20.80;33.35;102544.38;6303341;22;45238;-76
2023/05/18 05:47:45;;;;;;;;;2.00;2.00;;;;;20.79;33.50;102538.25;6304677;22;45322;-74
2023/05/18 05:50:11;;;;;;;;;4.00;3.00;;;;;20.82;33.50;102542.44;6302849;22;47485;-75
2023/05/18 05:52:36;;;;;;;;;2.50;2.50;;;;;20.69;33.49;102524.13;6304019;22;45246;-73
2023/05/18 05:55:01;;;;;;;;;4.50;2.50;;;;;20.80;33.86;102544.38;6305261;22;45193;-72
2023/05/18 05:57:27;;;;;;;;;2.00;1.25;;;;;20.79;33.51;102538.25;6303299;22;45302;-74
2023/05/18 05:59:52;;;;;;;;;2.00;2.00;;;;;20.79;33.33;102548.00;6302557;22;45448;-74
2023/05/18 06:02:17;;;;;;;;;3.75;2.25;;;;;20.61;33.31;102527.41;6304824;22;48736;-73
2023/05/18 06:04:43;;;;;;;;;3.00;1.00;;;;;20.55;33.33;102520.00;6304452;22;45343;-71
2023/05/18 06:07:08;;;;;;;;;1.75;1.75;;;;;20.76;33.33;102557.03;6303434;22;45309;-74
2023/05/18 06:09:33;;;;;;;;;4.00;2.00;;;;;20.62;33.67;102524.66;6301874;22;45943;-76
2023/05/18 06:11:59;;;;;;;;;4.50;3.75;;;;;20.83;33.54;102552.06;6304593;22;45324;-75
2023/05/18 06:14:24;;;;;;;;;4.00;1.00;;;;;20.85;33.70;102543.03;6304111;22;45309;-79
2023/05/18 06:16:49;;;;;;;;;1.50;1.00;;;;;20.90;33.85;102541.78;6304161;22;45396;-80
2023/05/18 06:19:15;;;;;;;;;4.25;3.00;;;;;20.91;33.45;102530.25;6304331;22;46018;-79
2023/05/18 06:21:40;;;;;;;;;3.25;2.50;;;;;21.04;34.20;102541.47;6301863;22;48285;-79
2023/05/18 06:24:06;;;;;;;;;1.00;1.00;;;;;21.04;33.88;102530.06;6303093;22;45245;-72
2023/05/18 06:26:31;;;;;;;;;2.00;1.00;;;;;21.06;34.29;102528.09;6302602;22;45465;-77
2023/05/18 06:28:56;;;;;;;;;4.00;2.00;;;;;21.22;33.93;102547.97;6303477;22;46534;-76
2023/05/18 06:31:22;;;;;;;;;2.00;1.00;;;;;21.22;33.80;102543.50;6303747;22;45344;-76
2023/05/18 06:33:48;;;;;;;;;2.00;2.00;;;;;21.29;34.11;102552.59;6302564;22;45382;-75
2023/05/18 06:36:14;;;;;;;;;3.00;2.00;;;;;21.36;34.49;102552.06;6304208;22;45216;-76
2023/05/18 06:38:39;;;;;;;;;5.00;1.33;;;;;21.39;34.26;102549.16;6303353;22;46265;-76
2023/05/18 06:41:05;;;;;;;;;3.00;2.00;;;;;21.47;34.54;102556.41;6304316;22;45241;-73
2023/05/18 06:43:30;;;;;;;;;1.33;1.00;;;;;21.38;34.12;102545.66;6304438;22;45135;-78
2023/05/18 06:45:55;;;;;;;;;4.67;1.67;;;;;21.44;34.51;102546.94;6303483;22;45570;-75
2023/05/18 06:48:24;;;;;;;;;2.67;2.67;;;;;21.37;34.07;102541.31;6304126;22;50791;-75
2023/05/18 06:50:49;;;;;;;;;1.33;1.33;;;;;21.38;33.96;102534.22;6303480;22;45229;-76
2023/05/18 06:53:15;;;;;;;;;3.33;1.33;;;;;21.56;33.87;102565.34;6304882;22;45272;-75
2023/05/18 06:55:40;;;;;;;;;2.67;2.00;;;;;21.57;33.83;102559.09;6304448;22;45352;-75
2023/05/18 06:58:06;;;;;;;;;2.33;2.00;;;;;21.56;34.08;102557.41;6304571;22;45322;-75
2023/05/18 07:00:31;;;;;;;;;3.00;3.00;;;;;21.51;34.32;102555.16;6304272;22;45309;-76
2023/05/18 07:02:56;;;;;;;;;1.50;1.00;;;;;21.52;33.81;102559.47;6304735;22;45196;-75
2023/05/18 07:05:23;;;;;;;;;2.25;1.50;;;;;21.61;33.47;102563.97;6303977;22;45256;-76
2023/05/18 07:07:48;;;;;;;;;3.00;2.00;;;;;21.48;33.82;102539.53;6304158;22;45238;-75
2023/05/18 07:10:14;;;;;;;;;4.50;3.50;;;;;21.64;33.59;102565.53;6304019;22;45218;-75
2023/05/18 07:12:39;;;;;;;;;3.00;2.00;;;;;21.68;33.91;102566.91;6304576;22;45216;-75
2023/05/18 07:15:05;;;;;;;;;2.00;2.00;;;;;21.67;33.76;102557.31;6304630;22;45230;-75
2023/05/18 07:17:30;;;;;;;;;3.00;1.33;;;;;21.72;33.74;102568.34;6304388;22;45919;-76
2023/05/18 07:19:55;;;;;;;;;3.25;2.00;;;;;21.77;33.46;102569.72;6304102;22;45215;-74
2023/05/18 07:22:21;;;;;;;;;1.50;1.00;;;;;21.65;33.32;102551.28;6304413;22;45224;-75
2023/05/18 07:24:46;;;;;;;;;4.33;3.00;;;;;21.62;33.42;102535.69;6304105;22;45217;-74
2023/05/18 07:27:12;;;;;;;;;1.00;1.00;;;;;21.77;33.21;102562.63;6304376;22;47897;-74
2023/05/18 07:29:37;;;;;;;;;2.67;2.00;;;;;21.62;33.41;102547.09;6304417;22;45308;-75
2023/05/18 07:32:03;;;;;;;;;1.00;1.00;;;;;21.77;33.50;102570.56;6304253;22;45348;-74
2023/05/18 07:34:28;;;;;;;;;1.67;1.00;;;;;21.76;33.56;102570.69;6304001;22;45355;-75
2023/05/18 07:36:53;;;;;;;;;1.33;1.33;;;;;21.76;33.46;102574.19;6304161;22;45367;-75
2023/05/18 07:39:19;;;;;;;;;2.67;2.00;;;;;21.78;32.99;102558.16;6303907;22;45303;-75
2023/05/18 07:41:46;;;;;;;;;3.00;2.00;;;;;21.78;33.67;102563.47;6303975;22;45722;-74
2023/05/18 07:44:12;;;;;;;;;3.00;1.33;;;;;21.76;33.47;102562.75;6304760;22;45391;-75
2023/05/18 07:46:37;;;;;;;;;3.67;1.67;;;;;21.79;33.50;102573.06;6304864;22;47201;-75
2023/05/18 07:49:02;;;;;;;;;2.67;2.00;;;;;21.71;33.37;102560.50;6303142;22;45237;-75
2023/05/18 07:51:28;;;;;;;;;1.00;1.00;;;;;21.72;33.16;102560.41;6305753;22;45220;-74
2023/05/18 07:53:54;;;;;;;;;2.00;1.00;;;;;21.77;33.04;102567.09;6305526;22;45303;-74
2023/05/18 07:56:19;;;;;;;;;0.67;0.67;;;;;21.80;33.50;102572.13;6304927;22;47051;-74
2023/05/18 07:58:44;;;;;;;;;6.33;1.00;;;;;21.69;33.31;102558.00;6305180;22;45249;-74
2023/05/18 08:01:10;;;;;;;;;4.00;1.00;;;;;21.70;33.18;102558.84;6305560;22;45278;-74
2023/05/18 08:03:35;;;;;;;;;1.67;1.67;;;;;21.81;32.86;102577.25;6304801;22;45340;-74
2023/05/18 08:06:00;;;;;;;;;1.67;1.00;;;;;21.81;33.42;102563.16;6305032;22;46018;-75
2023/05/18 08:08:26;;;;;;;;;2.00;1.00;;;;;21.76;33.00;102563.59;6305429;22;45174;-75
2023/05/18 08:10:52;;;;;;;;;1.00;1.00;;;;;21.82;33.30;102572.81;6305592;22;45151;-74
2023/05/18 08:13:17;;;;;;;;;3.67;2.67;;;;;21.80;33.43;102561.50;6305039;22;45357;-75
2023/05/18 08:15:43;;;;;;;;;1.00;1.00;;;;;21.82;33.45;102571.00;6303271;22;46994;-75
2023/05/18 08:18:08;;;;;;;;;2.00;1.25;;;;;21.78;33.34;102563.47;6304678;22;45286;-74
2023/05/18 08:20:33;;;;;;;;;1.00;1.00;;;;;21.82;33.07;102567.50;6305780;22;45186;-75
2023/05/18 08:22:58;;;;;;;;;3.00;2.00;;;;;21.90;33.19;102577.47;6305631;22;45411;-75
2023/05/18 08:25:24;;;;;;;;;1.67;1.67;;;;;21.90;32.78;102567.69;6305335;22;45267;-75
2023/05/18 08:27:49;;;;;;;;;4.00;2.67;;;;;21.82;32.85;102557.75;6304900;22;45293;-75
2023/05/18 08:30:15;;;;;;;;;1.33;1.00;;;;;21.86;33.07;102566.25;6305659;22;45281;-75
2023/05/18 08:32:40;;;;;;;;;1.00;1.00;;;;;21.95;32.79;102567.28;6302940;22;45335;-74
2023/05/18 08:35:07;;;;;;;;;1.00;1.00;;;;;21.91;33.24;102548.16;6304854;22;46389;-75
2023/05/18 08:37:33;;;;;;;;;3.67;2.00;;;;;21.96;32.77;102561.84;6303189;22;45272;-74
2023/05/18 08:39:58;;;;;;;;;2.00;1.00;;;;;21.93;32.92;102566.59;6305138;22;45221;-75
2023/05/18 08:42:38;;;;;;;;;0.33;0.33;;;;;21.92;32.89;102556.94;6305094;22;45402;-75
2023/05/18 08:45:12;;;;;;;;;2.25;2.25;;;;;22.00;32.46;102562.41;6305322;22;45296;-74
2023/05/18 08:47:37;;;;;;;;;1.00;0.67;;;;;21.83;32.30;102532.91;6304135;22;45332;-73
2023/05/18 08:50:04;;;;;;;;;1.00;1.00;;;;;22.04;32.34;102563.78;6305315;22;45349;-75
2023/05/18 08:52:34;;;;;;;;;1.00;1.00;;;;;22.05;32.69;102557.53;6305482;22;45472;-74
2023/05/18 08:55:04;;;;;;;;;1.33;1.00;;;;;22.05;32.63;102551.38;6304894;22;45280;-74
2023/05/18 08:57:34;;;;;;;;;2.33;2.00;;;;;21.99;32.22;102538.69;6304382;22;45317;-75
2023/05/18 09:00:00;;;;;;;;;1.00;1.00;;;;;22.10;32.54;102550.97;6304929;22;45283;-75
2023/05/18 09:02:27;;;;;;;;;1.67;1.67;;;;;22.05;32.55;102546.09;6304958;22;45410;-74
2023/05/18 09:04:55;;;;;;;;;1.00;1.00;;;;;22.08;32.23;102548.47;6305036;22;45328;-75
2023/05/18 09:07:21;;;;;;;;;1.75;1.50;;;;;22.03;32.29;102545.38;6304643;22;45320;-75
2023/05/18 09:09:48;;;;;;;;;2.33;1.67;;;;;22.03;32.11;102540.94;6304815;22;45317;-74
2023/05/18 09:12:15;;;;;;;;;2.00;1.00;;;;;22.13;32.45;102554.19;6304830;22;45345;-75
2023/05/18 09:14:42;;;;;;;;;3.67;2.00;;;;;22.13;32.39;102543.59;6305153;22;46315;-75
2023/05/18 09:17:08;;;;;;;;;3.00;1.33;;;;;22.07;31.91;102549.44;6304231;22;45267;-75
2023/05/18 09:19:34;;;;;;;;;1.00;0.33;;;;;22.15;32.23;102546.91;6304167;22;45200;-75
2023/05/18 09:22:00;;;;;;;;;2.33;1.00;;;;;22.16;31.94;102553.06;6304923;22;45231;-74
2023/05/18 09:24:25;;;;;;;;;4.00;1.00;;;;;22.17;32.29;102555.56;6304804;22;45309;-75
2023/05/18 09:26:51;;;;;;;;;3.00;3.00;;;;;22.14;32.33;102539.97;6305130;22;45291;-75
2023/05/18 09:29:22;;;;;;;;;1.33;1.33;;;;;22.14;31.95;102539.97;6304888;22;45259;-74
2023/05/18 09:31:48;;;;;;;;;0.33;0.33;;;;;22.17;32.20;102541.50;6304724;22;45245;-75
2023/05/18 09:34:14;;;;;;;;;1.00;1.00;;;;;22.16;32.04;102538.00;6304803;22;45359;-74
2023/05/18 09:36:41;;;;;;;;;1.33;1.00;;;;;22.18;32.20;102535.19;6304288;22;45319;-74
2023/05/18 09:39:09;;;;;;;;;2.00;1.00;;;;;22.18;31.58;102540.50;6304452;22;45316;-75
2023/05/18 09:41:38;;;;;;;;;1.00;1.00;;;;;22.18;31.69;102529.91;6304923;22;45412;-74
2023/05/18 09:44:08;;;;;;;;;0.00;0.00;;;;;22.01;31.60;102497.84;6304349;22;46293;-74
2023/05/18 09:46:36;;;;;;;;;2.33;1.00;;;;;22.20;31.79;102519.97;6304089;22;45312;-75
2023/05/18 09:49:02;;;;;;;;;1.67;1.67;;;;;22.21;31.52;102520.81;6304469;22;45313;-74
2023/05/18 09:51:28;;;;;;;;;1.33;1.00;;;;;22.20;31.77;102522.63;6304665;22;45270;-74
2023/05/18 09:53:55;;;;;;;;;1.00;1.00;;;;;22.22;32.00;102525.16;6304838;22;45541;-74
2023/05/18 09:56:22;;;;;;;;;2.00;2.00;;;;;22.21;32.03;102521.66;6305056;22;45338;-74
2023/05/18 09:58:48;;;;;;;;;0.00;0.00;;;;;22.10;31.78;102490.84;6304572;22;45225;-75
2023/05/18 10:01:14;;;;;;;;;1.00;1.00;;;;;22.16;31.39;102506.19;6304458;22;45379;-75
2023/05/18 10:03:39;;;;;;;;;1.00;1.00;;;;;22.11;31.86;102507.59;6302904;22;47055;-75
2023/05/18 10:06:07;;;;;;;;;1.00;1.00;;;;;22.24;31.76;102536.47;6304405;22;45302;-75
2023/05/18 10:08:33;;;;;;;;;1.00;1.00;;;;;22.25;31.88;102520.41;6304635;22;45631;-76
2023/05/18 10:10:59;;;;;;;;;1.00;1.00;;;;;22.21;32.04;102515.53;6304612;22;45301;-75
2023/05/18 10:13:27;;;;;;;;;3.00;2.00;;;;;22.19;32.19;102499.78;6303771;22;47190;-75
2023/05/18 10:15:58;;;;;;;;;1.00;1.00;;;;;22.30;31.95;102504.09;6304592;22;45240;-76
2023/05/18 10:18:25;;;;;;;;;0.33;0.33;;;;;22.32;31.66;102512.75;6304619;22;45475;-75
2023/05/18 10:20:53;;;;;;;;;1.00;1.00;;;;;22.33;31.97;102517.03;6304555;22;45442;-75
2023/05/18 10:23:22;;;;;;;;;1.00;1.00;;;;;22.28;31.45;102512.16;6304299;22;47016;-76
2023/05/18 10:25:49;;;;;;;;;0.67;0.67;;;;;22.26;31.44;102489.44;6304340;22;45294;-75
2023/05/18 10:28:24;;;;;;;;;0.67;0.67;;;;;22.36;31.59;102521.22;6304095;22;45362;-75
2023/05/18 10:30:52;;;;;;;;;1.00;1.00;;;;;22.36;31.53;102521.22;6304518;22;45386;-75
2023/05/18 10:33:21;;;;;;;;;2.00;1.00;;;;;22.35;31.83;102493.88;6304265;22;46256;-76
2023/05/18 10:35:48;;;;;;;;;1.00;1.00;;;;;22.35;31.15;102512.44;6304216;22;45228;-75
2023/05/18 10:38:18;;;;;;;;;3.00;1.33;;;;;22.32;31.06;102501.28;6304572;22;45289;-75
2023/05/18 10:40:44;;;;;;;;;2.67;1.00;;;;;22.27;31.51;102489.31;6305087;22;45177;-75
2023/05/18 10:43:10;;;;;;;;;1.00;1.00;;;;;22.22;31.67;102480.94;6303658;22;46154;-76
2023/05/18 10:45:36;;;;;;;;;3.33;1.00;;;;;22.35;31.61;102487.75;6303981;22;45216;-76
2023/05/18 10:48:03;;;;;;;;;2.67;1.00;;;;;22.34;31.06;102497.53;6304383;22;45196;-75
2023/05/18 10:50:30;;;;;;;;;3.00;2.00;;;;;22.33;31.66;102495.84;6304616;22;45479;-75
2023/05/18 10:52:58;;;;;;;;;2.00;0.67;;;;;22.34;31.53;102488.72;6304463;22;45402;-76
2023/05/18 10:55:24;;;;;;;;;1.25;1.00;;;;;22.29;31.05;102474.09;6304353;22;45292;-75
2023/05/18 10:58:01;;;;;;;;;1.00;1.00;;;;;22.29;31.32;102467.94;6304005;22;45242;-75
2023/05/18 11:00:27;;;;;;;;;1.00;1.00;;;;;22.25;31.45;102461.25;6304378;22;45149;-75
2023/05/18 11:02:53;;;;;;;;;1.00;1.00;;;;;22.31;30.88;102478.38;6304105;22;45942;-76
2023/05/18 11:05:25;;;;;;;;;2.67;1.00;;;;;22.07;31.20;102446.91;6304273;22;45273;-76
2023/05/18 11:07:59;;;;;;;;;2.00;2.00;;;;;22.34;30.94;102472.81;6304259;22;45225;-75
2023/05/18 11:10:38;;;;;;;;;1.00;1.00;;;;;22.34;31.35;102478.09;6304296;22;45476;-76
2023/05/18 11:13:05;;;;;;;;;1.00;1.00;;;;;22.33;31.22;102474.63;6303435;22;46144;-75
2023/05/18 11:15:52;;;;;;;;;1.00;1.00;;;;;22.34;30.90;102472.81;6303599;22;45352;-75
2023/05/18 11:18:18;;;;;;;;;1.00;1.00;;;;;22.31;31.19;102478.38;6303713;22;45206;-75
2023/05/18 11:20:47;;;;;;;;;1.67;1.00;;;;;22.34;31.14;102480.75;6303994;22;45324;-76